Terminal Aerodrome Forecast
Issued by NWS

Current Version | Previous Version | Text Only | Print | Product List | Glossary On
Versions: 1 2 3 4 5 6 7 8 9 10 11 12 13 14 15
000
FTUS44 KMAF 191700
TAFFST
TAF
KFST 191736Z 1918/2018 09011KT P6SM OVC035
     FM192200 15011KT P6SM OVC050
      TEMPO 1922/2002 3SM TSRA OVC030CB
     FM200600 17010KT P6SM OVC035=

USA.gov is the U.S. government's official web portal to all federal, state and local government web resources and services.